sensor_id;sensor_type;location;lat;lon;timestamp;pressure;altitude;pressure_sealevel;temperature
67829;BMP280;54626;45.436;10.942;2022-12-29T00:01:38;101382.69;;;7.70
67829;BMP280;54626;45.436;10.942;2022-12-29T00:04:04;101385.94;;;7.74
67829;BMP280;54626;45.436;10.942;2022-12-29T00:06:36;101381.47;;;7.77
67829;BMP280;54626;45.436;10.942;2022-12-29T00:09:02;101367.22;;;7.78
67829;BMP280;54626;45.436;10.942;2022-12-29T00:11:29;101356.47;;;7.80
67829;BMP280;54626;45.436;10.942;2022-12-29T00:13:55;101342.97;;;7.82
67829;BMP280;54626;45.436;10.942;2022-12-29T00:16:42;101344.97;;;7.87
67829;BMP280;54626;45.436;10.942;2022-12-29T00:19:09;101353.50;;;7.89
67829;BMP280;54626;45.436;10.942;2022-12-29T00:21:57;101358.72;;;7.87
67829;BMP280;54626;45.436;10.942;2022-12-29T00:24:44;101357.00;;;7.84
67829;BMP280;54626;45.436;10.942;2022-12-29T00:27:19;101365.22;;;7.79
67829;BMP280;54626;45.436;10.942;2022-12-29T00:30:10;101368.69;;;7.74
67829;BMP280;54626;45.436;10.942;2022-12-29T00:32:55;101363.69;;;7.72
67829;BMP280;54626;45.436;10.942;2022-12-29T00:35:46;101350.84;;;7.64
67829;BMP280;54626;45.436;10.942;2022-12-29T00:38:16;101345.88;;;7.62
67829;BMP280;54626;45.436;10.942;2022-12-29T00:41:01;101341.63;;;7.61
67829;BMP280;54626;45.436;10.942;2022-12-29T00:43:46;101340.81;;;7.55
67829;BMP280;54626;45.436;10.942;2022-12-29T00:46:35;101347.78;;;7.45
67829;BMP280;54626;45.436;10.942;2022-12-29T00:49:04;101352.56;;;7.50
67829;BMP280;54626;45.436;10.942;2022-12-29T00:51:50;101340.75;;;7.44
67829;BMP280;54626;45.436;10.942;2022-12-29T00:54:17;101346.47;;;7.41
67829;BMP280;54626;45.436;10.942;2022-12-29T00:56:46;101344.50;;;7.41
67829;BMP280;54626;45.436;10.942;2022-12-29T00:59:13;101351.00;;;7.38
67829;BMP280;54626;45.436;10.942;2022-12-29T01:01:40;101359.97;;;7.33
67829;BMP280;54626;45.436;10.942;2022-12-29T01:04:08;101355.00;;;7.37
67829;BMP280;54626;45.436;10.942;2022-12-29T01:06:36;101346.47;;;7.41
67829;BMP280;54626;45.436;10.942;2022-12-29T01:09:03;101358.78;;;7.45
67829;BMP280;54626;45.436;10.942;2022-12-29T01:11:49;101353.03;;;7.49
67829;BMP280;54626;45.436;10.942;2022-12-29T01:14:16;101355.31;;;7.50
67829;BMP280;54626;45.436;10.942;2022-12-29T01:16:43;101356.81;;;7.51
67829;BMP280;54626;45.436;10.942;2022-12-29T01:19:10;101360.81;;;7.56
67829;BMP280;54626;45.436;10.942;2022-12-29T01:21:37;101362.06;;;7.55
67829;BMP280;54626;45.436;10.942;2022-12-29T01:24:04;101360.31;;;7.52
67829;BMP280;54626;45.436;10.942;2022-12-29T01:26:30;101362.34;;;7.57
67829;BMP280;54626;45.436;10.942;2022-12-29T01:28:57;101351.59;;;7.59
67829;BMP280;54626;45.436;10.942;2022-12-29T01:31:23;101349.59;;;7.59
67829;BMP280;54626;45.436;10.942;2022-12-29T01:33:49;101353.59;;;7.64
67829;BMP280;54626;45.436;10.942;2022-12-29T01:36:17;101357.13;;;7.64
67829;BMP280;54626;45.436;10.942;2022-12-29T01:38:44;101354.38;;;7.64
67829;BMP280;54626;45.436;10.942;2022-12-29T01:41:12;101366.16;;;7.65
67829;BMP280;54626;45.436;10.942;2022-12-29T01:46:41;101361.91;;;7.69
67829;BMP280;54626;45.436;10.942;2022-12-29T01:49:14;101367.69;;;7.71
67829;BMP280;54626;45.436;10.942;2022-12-29T01:51:53;101366.22;;;7.76
67829;BMP280;54626;45.436;10.942;2022-12-29T01:54:33;101368.44;;;7.77
67829;BMP280;54626;45.436;10.942;2022-12-29T01:57:01;101365.22;;;7.79
67829;BMP280;54626;45.436;10.942;2022-12-29T01:59:32;101367.22;;;7.78
67829;BMP280;54626;45.436;10.942;2022-12-29T02:01:59;101358.94;;;7.78
67829;BMP280;54626;45.436;10.942;2022-12-29T02:04:26;101363.22;;;7.79
67829;BMP280;54626;45.436;10.942;2022-12-29T02:07:04;101356.47;;;7.80
67829;BMP280;54626;45.436;10.942;2022-12-29T02:09:32;101344.47;;;7.83
67829;BMP280;54626;45.436;10.942;2022-12-29T02:11:58;101342.47;;;7.84
67829;BMP280;54626;45.436;10.942;2022-12-29T02:14:25;101341.72;;;7.83
67829;BMP280;54626;45.436;10.942;2022-12-29T02:25:00;101328.22;;;7.91
67829;BMP280;54626;45.436;10.942;2022-12-29T02:27:43;101328.97;;;7.91
67829;BMP280;54626;45.436;10.942;2022-12-29T02:30:44;101336.97;;;7.89
67829;BMP280;54626;45.436;10.942;2022-12-29T02:33:43;101334.97;;;7.84
67829;BMP280;54626;45.436;10.942;2022-12-29T02:39:19;101320.66;;;7.80
67829;BMP280;54626;45.436;10.942;2022-12-29T02:42:01;101331.16;;;7.76
67829;BMP280;54626;45.436;10.942;2022-12-29T02:47:37;101332.34;;;7.64
67829;BMP280;54626;45.436;10.942;2022-12-29T02:50:23;101332.31;;;7.59
67829;BMP280;54626;45.436;10.942;2022-12-29T02:52:56;101330.34;;;7.59
67829;BMP280;54626;45.436;10.942;2022-12-29T02:55:23;101328.59;;;7.62
67829;BMP280;54626;45.436;10.942;2022-12-29T02:58:10;101323.09;;;7.62
67829;BMP280;54626;45.436;10.942;2022-12-29T03:00:48;101320.78;;;7.55
67829;BMP280;54626;45.436;10.942;2022-12-29T03:06:36;101305.53;;;7.54
67829;BMP280;54626;45.436;10.942;2022-12-29T03:09:43;101306.28;;;7.54
67829;BMP280;54626;45.436;10.942;2022-12-29T03:15:13;101301.31;;;7.58
67829;BMP280;54626;45.436;10.942;2022-12-29T03:18:23;101307.78;;;7.55
67829;BMP280;54626;45.436;10.942;2022-12-29T03:20:54;101323.53;;;7.49
67829;BMP280;54626;45.436;10.942;2022-12-29T03:23:23;101330.50;;;7.45
67829;BMP280;54626;45.436;10.942;2022-12-29T03:25:56;101331.81;;;7.49
67829;BMP280;54626;45.436;10.942;2022-12-29T03:28:26;101310.25;;;7.48
67829;BMP280;54626;45.436;10.942;2022-12-29T03:30:55;101294.19;;;7.41
67829;BMP280;54626;45.436;10.942;2022-12-29T03:33:25;101303.25;;;7.47
67829;BMP280;54626;45.436;10.942;2022-12-29T03:35:57;101295.75;;;7.47
67829;BMP280;54626;45.436;10.942;2022-12-29T03:41:06;101298.03;;;7.54
67829;BMP280;54626;45.436;10.942;2022-12-29T03:43:34;101291.25;;;7.50
67829;BMP280;54626;45.436;10.942;2022-12-29T03:46:00;101293.00;;;7.53
67829;BMP280;54626;45.436;10.942;2022-12-29T03:48:27;101291.28;;;7.55
67829;BMP280;54626;45.436;10.942;2022-12-29T03:50:53;101291.28;;;7.55
67829;BMP280;54626;45.436;10.942;2022-12-29T03:53:19;101285.28;;;7.57
67829;BMP280;54626;45.436;10.942;2022-12-29T03:55:46;101281.78;;;7.56
67829;BMP280;54626;45.436;10.942;2022-12-29T03:58:12;101290.31;;;7.58
67829;BMP280;54626;45.436;10.942;2022-12-29T04:00:39;101295.81;;;7.58
67829;BMP280;54626;45.436;10.942;2022-12-29T04:03:05;101296.78;;;7.55
67829;BMP280;54626;45.436;10.942;2022-12-29T04:05:32;101302.28;;;7.55
67829;BMP280;54626;45.436;10.942;2022-12-29T04:08:01;101299.81;;;7.57
67829;BMP280;54626;45.436;10.942;2022-12-29T04:10:27;101299.56;;;7.61
67829;BMP280;54626;45.436;10.942;2022-12-29T04:12:54;101302.06;;;7.59
67829;BMP280;54626;45.436;10.942;2022-12-29T04:15:20;101299.28;;;7.53
67829;BMP280;54626;45.436;10.942;2022-12-29T04:17:46;101287.50;;;7.53
67829;BMP280;54626;45.436;10.942;2022-12-29T04:20:13;101296.28;;;7.57
67829;BMP280;54626;45.436;10.942;2022-12-29T04:23:15;101301.06;;;7.62
67829;BMP280;54626;45.436;10.942;2022-12-29T04:25:45;101303.31;;;7.63
67829;BMP280;54626;45.436;10.942;2022-12-29T04:28:14;101311.13;;;7.70
67829;BMP280;54626;45.436;10.942;2022-12-29T04:30:42;101314.38;;;7.69
67829;BMP280;54626;45.436;10.942;2022-12-29T04:33:09;101308.63;;;7.67
67829;BMP280;54626;45.436;10.942;2022-12-29T04:35:36;101304.13;;;7.69
67829;BMP280;54626;45.436;10.942;2022-12-29T04:38:03;101282.59;;;7.68
67829;BMP280;54626;45.436;10.942;2022-12-29T04:40:29;101274.81;;;7.66
67829;BMP280;54626;45.436;10.942;2022-12-29T04:42:55;101278.81;;;7.65
67829;BMP280;54626;45.436;10.942;2022-12-29T04:45:22;101296.56;;;7.64
67829;BMP280;54626;45.436;10.942;2022-12-29T04:47:48;101303.31;;;7.63
67829;BMP280;54626;45.436;10.942;2022-12-29T04:50:15;101300.09;;;7.65
67829;BMP280;54626;45.436;10.942;2022-12-29T04:52:43;101301.59;;;7.66
67829;BMP280;54626;45.436;10.942;2022-12-29T04:55:09;101296.84;;;7.66
67829;BMP280;54626;45.436;10.942;2022-12-29T04:57:36;101298.34;;;7.67
67829;BMP280;54626;45.436;10.942;2022-12-29T05:00:03;101305.09;;;7.66
67829;BMP280;54626;45.436;10.942;2022-12-29T05:02:30;101314.34;;;7.63
67829;BMP280;54626;45.436;10.942;2022-12-29T05:04:57;101313.84;;;7.59
67829;BMP280;54626;45.436;10.942;2022-12-29T05:07:23;101301.06;;;7.62
67829;BMP280;54626;45.436;10.942;2022-12-29T05:09:51;101280.03;;;7.59
67829;BMP280;54626;45.436;10.942;2022-12-29T05:12:17;101276.03;;;7.60
67829;BMP280;54626;45.436;10.942;2022-12-29T05:14:44;101289.31;;;7.61
67829;BMP280;54626;45.436;10.942;2022-12-29T05:17:10;101290.53;;;7.49
67829;BMP280;54626;45.436;10.942;2022-12-29T05:19:36;101303.22;;;7.41
67829;BMP280;54626;45.436;10.942;2022-12-29T05:22:04;101304.22;;;7.38
67829;BMP280;54626;45.436;10.942;2022-12-29T05:24:30;101300.94;;;7.34
67829;BMP280;54626;45.436;10.942;2022-12-29T05:26:57;101292.69;;;7.34
67829;BMP280;54626;45.436;10.942;2022-12-29T05:29:23;101303.97;;;7.36
67829;BMP280;54626;45.436;10.942;2022-12-29T05:31:50;101316.75;;;7.39
67829;BMP280;54626;45.436;10.942;2022-12-29T05:34:16;101309.72;;;7.38
67829;BMP280;54626;45.436;10.942;2022-12-29T05:36:43;101322.69;;;7.32
67829;BMP280;54626;45.436;10.942;2022-12-29T05:39:10;101323.69;;;7.30
67829;BMP280;54626;45.436;10.942;2022-12-29T05:41:36;101308.44;;;7.29
67829;BMP280;54626;45.436;10.942;2022-12-29T05:44:02;101300.63;;;7.22
67829;BMP280;54626;45.436;10.942;2022-12-29T05:46:29;101300.13;;;7.23
67829;BMP280;54626;45.436;10.942;2022-12-29T05:48:56;101310.84;;;7.21
67829;BMP280;54626;45.436;10.942;2022-12-29T05:51:22;101328.31;;;7.18
67829;BMP280;54626;45.436;10.942;2022-12-29T05:53:48;101309.06;;;7.18
67829;BMP280;54626;45.436;10.942;2022-12-29T05:56:15;101307.56;;;7.12
67829;BMP280;54626;45.436;10.942;2022-12-29T05:58:41;101312.78;;;7.10
67829;BMP280;54626;45.436;10.942;2022-12-29T06:01:08;101309.25;;;7.04
67829;BMP280;54626;45.436;10.942;2022-12-29T06:03:34;101306.50;;;7.04
67829;BMP280;54626;45.436;10.942;2022-12-29T06:06:01;101308.75;;;7.05
67829;BMP280;54626;45.436;10.942;2022-12-29T06:08:27;101305.75;;;7.03
67829;BMP280;54626;45.436;10.942;2022-12-29T06:10:54;101293.94;;;6.97
67829;BMP280;54626;45.436;10.942;2022-12-29T06:13:20;101298.00;;;7.02
67829;BMP280;54626;45.436;10.942;2022-12-29T06:15:50;101302.53;;;7.05
67829;BMP280;54626;45.436;10.942;2022-12-29T06:18:16;101299.28;;;7.06
67829;BMP280;54626;45.436;10.942;2022-12-29T06:20:45;101299.78;;;7.05
67829;BMP280;54626;45.436;10.942;2022-12-29T06:23:12;101303.97;;;7.00
67829;BMP280;54626;45.436;10.942;2022-12-29T06:25:39;101293.44;;;6.93
67829;BMP280;54626;45.436;10.942;2022-12-29T06:28:06;101286.38;;;6.87
67829;BMP280;54626;45.436;10.942;2022-12-29T06:30:33;101283.38;;;6.85
67829;BMP280;54626;45.436;10.942;2022-12-29T06:32:59;101286.38;;;6.87
67829;BMP280;54626;45.436;10.942;2022-12-29T06:35:26;101291.44;;;6.94
67829;BMP280;54626;45.436;10.942;2022-12-29T06:37:52;101294.72;;;6.98
67829;BMP280;54626;45.436;10.942;2022-12-29T06:40:18;101288.44;;;6.97
67829;BMP280;54626;45.436;10.942;2022-12-29T06:42:45;101294.22;;;6.99
67829;BMP280;54626;45.436;10.942;2022-12-29T06:45:11;101282.47;;;6.99
67829;BMP280;54626;45.436;10.942;2022-12-29T06:47:38;101298.47;;;7.00
67829;BMP280;54626;45.436;10.942;2022-12-29T06:50:05;101310.97;;;7.01
67829;BMP280;54626;45.436;10.942;2022-12-29T06:52:32;101302.97;;;6.98
67829;BMP280;54626;45.436;10.942;2022-12-29T06:54:58;101313.19;;;6.97
67829;BMP280;54626;45.436;10.942;2022-12-29T06:57:25;101314.19;;;6.94
67829;BMP280;54626;45.436;10.942;2022-12-29T06:59:52;101319.41;;;6.92
67829;BMP280;54626;45.436;10.942;2022-12-29T07:02:22;101305.41;;;6.90
67829;BMP280;54626;45.436;10.942;2022-12-29T07:04:52;101303.69;;;6.93
67829;BMP280;54626;45.436;10.942;2022-12-29T07:07:19;101296.44;;;6.95
67829;BMP280;54626;45.436;10.942;2022-12-29T07:09:46;101302.19;;;6.97
67829;BMP280;54626;45.436;10.942;2022-12-29T07:12:13;101304.19;;;6.97
67829;BMP280;54626;45.436;10.942;2022-12-29T07:14:39;101300.25;;;7.03
67829;BMP280;54626;45.436;10.942;2022-12-29T07:17:09;101311.75;;;7.07
67829;BMP280;54626;45.436;10.942;2022-12-29T07:19:35;101318.03;;;7.08
67829;BMP280;54626;45.436;10.942;2022-12-29T07:22:02;101326.03;;;7.06
67829;BMP280;54626;45.436;10.942;2022-12-29T07:24:28;101323.78;;;7.10
67829;BMP280;54626;45.436;10.942;2022-12-29T07:26:56;101323.28;;;7.11
67829;BMP280;54626;45.436;10.942;2022-12-29T07:29:22;101322.31;;;7.14
67829;BMP280;54626;45.436;10.942;2022-12-29T07:31:48;101316.34;;;7.16
67829;BMP280;54626;45.436;10.942;2022-12-29T07:34:15;101309.88;;;7.24
67829;BMP280;54626;45.436;10.942;2022-12-29T07:36:41;101311.91;;;7.29
67829;BMP280;54626;45.436;10.942;2022-12-29T07:39:08;101309.94;;;7.35
67829;BMP280;54626;45.436;10.942;2022-12-29T07:41:34;101309.22;;;7.40
67829;BMP280;54626;45.436;10.942;2022-12-29T07:44:01;101306.25;;;7.43
67829;BMP280;54626;45.436;10.942;2022-12-29T07:46:27;101306.00;;;7.47
67829;BMP280;54626;45.436;10.942;2022-12-29T07:49:13;101318.31;;;7.51
67829;BMP280;54626;45.436;10.942;2022-12-29T07:51:40;101319.81;;;7.58
67829;BMP280;54626;45.436;10.942;2022-12-29T07:54:06;101319.59;;;7.61
67829;BMP280;54626;45.436;10.942;2022-12-29T07:56:33;101311.84;;;7.65
67829;BMP280;54626;45.436;10.942;2022-12-29T07:58:59;101314.66;;;7.71
67829;BMP280;54626;45.436;10.942;2022-12-29T08:01:25;101327.16;;;7.72
67829;BMP280;54626;45.436;10.942;2022-12-29T08:03:52;101347.41;;;7.74
67829;BMP280;54626;45.436;10.942;2022-12-29T08:06:22;101354.19;;;7.73
67829;BMP280;54626;45.436;10.942;2022-12-29T08:08:49;101355.38;;;7.61
67829;BMP280;54626;45.436;10.942;2022-12-29T08:11:15;101347.50;;;7.43
67829;BMP280;54626;45.436;10.942;2022-12-29T08:13:42;101351.09;;;7.19
67829;BMP280;54626;45.436;10.942;2022-12-29T08:16:08;101359.72;;;7.01
67829;BMP280;54626;45.436;10.942;2022-12-29T08:18:35;101363.91;;;6.91
67829;BMP280;54626;45.436;10.942;2022-12-29T08:21:03;101339.44;;;6.93
67829;BMP280;54626;45.436;10.942;2022-12-29T08:23:29;101342.72;;;7.02
67829;BMP280;54626;45.436;10.942;2022-12-29T08:25:56;101365.44;;;6.97
67829;BMP280;54626;45.436;10.942;2022-12-29T08:28:23;101363.91;;;6.91
67829;BMP280;54626;45.436;10.942;2022-12-29T08:30:49;101368.06;;;6.81
67829;BMP280;54626;45.436;10.942;2022-12-29T08:33:16;101380.22;;;6.74
67829;BMP280;54626;45.436;10.942;2022-12-29T08:35:42;101389.88;;;6.64
67829;BMP280;54626;45.436;10.942;2022-12-29T08:38:08;101384.19;;;6.68
67829;BMP280;54626;45.436;10.942;2022-12-29T08:40:37;101372.84;;;6.86
67829;BMP280;54626;45.436;10.942;2022-12-29T08:43:03;101390.25;;;7.08
67829;BMP280;54626;45.436;10.942;2022-12-29T08:45:30;101386.69;;;7.28
67829;BMP280;54626;45.436;10.942;2022-12-29T08:47:56;101399.28;;;7.39
67829;BMP280;54626;45.436;10.942;2022-12-29T08:50:23;101393.31;;;7.46
67829;BMP280;54626;45.436;10.942;2022-12-29T08:52:49;101380.84;;;7.56
67829;BMP280;54626;45.436;10.942;2022-12-29T08:55:16;101385.88;;;7.63
67829;BMP280;54626;45.436;10.942;2022-12-29T08:57:42;101383.72;;;7.73
67829;BMP280;54626;45.436;10.942;2022-12-29T09:00:09;101391.50;;;7.80
67829;BMP280;54626;45.436;10.942;2022-12-29T09:02:36;101395.03;;;7.86
67829;BMP280;54626;45.436;10.942;2022-12-29T09:05:02;101385.56;;;7.92
67829;BMP280;54626;45.436;10.942;2022-12-29T09:07:29;101379.81;;;7.96
67829;BMP280;54626;45.436;10.942;2022-12-29T09:09:55;101371.03;;;7.97
67829;BMP280;54626;45.436;10.942;2022-12-29T09:12:22;101361.53;;;7.98
67829;BMP280;54626;45.436;10.942;2022-12-29T09:14:49;101377.56;;;8.05
67829;BMP280;54626;45.436;10.942;2022-12-29T09:17:15;101382.09;;;8.08
67829;BMP280;54626;45.436;10.942;2022-12-29T09:20:00;101382.88;;;8.14
67829;BMP280;54626;45.436;10.942;2022-12-29T09:22:27;101382.91;;;8.20
67829;BMP280;54626;45.436;10.942;2022-12-29T09:24:53;101384.41;;;8.21
67829;BMP280;54626;45.436;10.942;2022-12-29T09:27:20;101386.91;;;8.19
67829;BMP280;54626;45.436;10.942;2022-12-29T09:29:46;101386.91;;;8.24
67829;BMP280;54626;45.436;10.942;2022-12-29T09:32:12;101371.91;;;8.25
67829;BMP280;54626;45.436;10.942;2022-12-29T09:34:44;101363.38;;;8.28
67829;BMP280;54626;45.436;10.942;2022-12-29T09:37:10;101370.66;;;8.31
67829;BMP280;54626;45.436;10.942;2022-12-29T09:39:37;101376.69;;;8.41
67829;BMP280;54626;45.436;10.942;2022-12-29T09:42:09;101371.38;;;8.26
67829;BMP280;54626;45.436;10.942;2022-12-29T09:47:28;101361.75;;;7.89
67829;BMP280;54626;45.436;10.942;2022-12-29T09:49:59;101375.72;;;7.80
67829;BMP280;54626;45.436;10.942;2022-12-29T09:52:44;101376.16;;;7.62
67829;BMP280;54626;45.436;10.942;2022-12-29T09:55:18;101379.06;;;7.48
67829;BMP280;54626;45.436;10.942;2022-12-29T09:57:56;101382.97;;;7.36
67829;BMP280;54626;45.436;10.942;2022-12-29T10:00:36;101372.44;;;7.29
67829;BMP280;54626;45.436;10.942;2022-12-29T10:03:24;101364.69;;;7.28
67829;BMP280;54626;45.436;10.942;2022-12-29T10:06:10;101369.91;;;7.26
67829;BMP280;54626;45.436;10.942;2022-12-29T10:22:28;101358.44;;;8.76
67829;BMP280;54626;45.436;10.942;2022-12-29T10:24:59;101351.19;;;8.84
67829;BMP280;54626;45.436;10.942;2022-12-29T10:27:30;101341.63;;;9.02
67829;BMP280;54626;45.436;10.942;2022-12-29T10:29:59;101337.34;;;9.06
67829;BMP280;54626;45.436;10.942;2022-12-29T10:32:32;101337.13;;;8.93
67829;BMP280;54626;45.436;10.942;2022-12-29T10:35:05;101346.38;;;8.96
67829;BMP280;54626;45.436;10.942;2022-12-29T10:37:57;101329.81;;;9.06
67829;BMP280;54626;45.436;10.942;2022-12-29T10:40:29;101321.78;;;9.14
67829;BMP280;54626;45.436;10.942;2022-12-29T10:42:58;101317.00;;;9.14
67829;BMP280;54626;45.436;10.942;2022-12-29T10:45:29;101321.31;;;8.99
67829;BMP280;54626;45.436;10.942;2022-12-29T10:48:03;101316.06;;;8.90
67829;BMP280;54626;45.436;10.942;2022-12-29T10:50:32;101313.78;;;9.00
67829;BMP280;54626;45.436;10.942;2022-12-29T10:53:00;101327.56;;;9.00
67829;BMP280;54626;45.436;10.942;2022-12-29T10:55:36;101318.31;;;8.81
67829;BMP280;54626;45.436;10.942;2022-12-29T10:58:06;101315.34;;;8.73
67829;BMP280;54626;45.436;10.942;2022-12-29T11:00:33;101307.28;;;8.75
67829;BMP280;54626;45.436;10.942;2022-12-29T11:08:33;101309.50;;;9.04
67829;BMP280;54626;45.436;10.942;2022-12-29T11:11:07;101305.72;;;9.12
67829;BMP280;54626;45.436;10.942;2022-12-29T11:13:35;101303.69;;;9.18
67829;BMP280;54626;45.436;10.942;2022-12-29T11:16:12;101287.84;;;9.30
67829;BMP280;54626;45.436;10.942;2022-12-29T11:18:39;101284.34;;;9.29
67829;BMP280;54626;45.436;10.942;2022-12-29T11:21:26;101286.03;;;9.49
67829;BMP280;54626;45.436;10.942;2022-12-29T11:24:01;101291.25;;;9.58
67829;BMP280;54626;45.436;10.942;2022-12-29T11:26:30;101294.56;;;9.51
67829;BMP280;54626;45.436;10.942;2022-12-29T11:29:04;101298.09;;;9.46
67829;BMP280;54626;45.436;10.942;2022-12-29T11:31:40;101303.63;;;9.40
67829;BMP280;54626;45.436;10.942;2022-12-29T11:34:07;101302.16;;;9.34
67829;BMP280;54626;45.436;10.942;2022-12-29T11:36:35;101300.94;;;9.24
67829;BMP280;54626;45.436;10.942;2022-12-29T11:39:02;101292.66;;;9.24
67829;BMP280;54626;45.436;10.942;2022-12-29T11:41:35;101296.41;;;9.26
67829;BMP280;54626;45.436;10.942;2022-12-29T11:44:02;101299.69;;;9.25
67829;BMP280;54626;45.436;10.942;2022-12-29T11:46:34;101291.41;;;9.25
67829;BMP280;54626;45.436;10.942;2022-12-29T11:49:02;101285.38;;;9.26
67829;BMP280;54626;45.436;10.942;2022-12-29T11:51:36;101279.34;;;9.22
67829;BMP280;54626;45.436;10.942;2022-12-29T11:54:04;101295.69;;;9.09
67829;BMP280;54626;45.436;10.942;2022-12-29T11:56:36;101288.75;;;8.92
67829;BMP280;54626;45.436;10.942;2022-12-29T11:59:37;101302.03;;;8.72
67829;BMP280;54626;45.436;10.942;2022-12-29T12:07:40;101282.47;;;8.59
67829;BMP280;54626;45.436;10.942;2022-12-29T12:10:18;101269.47;;;8.54
67829;BMP280;54626;45.436;10.942;2022-12-29T12:15:24;101251.66;;;8.38
67829;BMP280;54626;45.436;10.942;2022-12-29T12:20:57;101223.84;;;8.64
67829;BMP280;54626;45.436;10.942;2022-12-29T12:23:47;101228.84;;;8.60
67829;BMP280;54626;45.436;10.942;2022-12-29T12:26:21;101226.63;;;8.42
67829;BMP280;54626;45.436;10.942;2022-12-29T12:29:00;101231.13;;;8.28
67829;BMP280;54626;45.436;10.942;2022-12-29T12:31:49;101244.91;;;8.18
67829;BMP280;54626;45.436;10.942;2022-12-29T12:34:31;101244.63;;;8.10
67829;BMP280;54626;45.436;10.942;2022-12-29T12:37:05;101257.88;;;8.06
67829;BMP280;54626;45.436;10.942;2022-12-29T12:42:42;101275.66;;;8.05
67829;BMP280;54626;45.436;10.942;2022-12-29T12:48:33;101275.94;;;8.18
67829;BMP280;54626;45.436;10.942;2022-12-29T12:53:44;101259.94;;;8.27
67829;BMP280;54626;45.436;10.942;2022-12-29T13:16:09;101290.13;;;9.37
67829;BMP280;54626;45.436;10.942;2022-12-29T13:18:48;101284.59;;;9.37
67829;BMP280;54626;45.436;10.942;2022-12-29T13:24:26;101244.59;;;9.54
67829;BMP280;54626;45.436;10.942;2022-12-29T13:27:23;101234.50;;;9.62
67829;BMP280;54626;45.436;10.942;2022-12-29T13:30:02;101230.94;;;9.67
67829;BMP280;54626;45.436;10.942;2022-12-29T13:33:07;101230.19;;;9.72
67829;BMP280;54626;45.436;10.942;2022-12-29T13:36:19;101231.16;;;9.75
67829;BMP280;54626;45.436;10.942;2022-12-29T13:38:51;101238.69;;;9.80
67829;BMP280;54626;45.436;10.942;2022-12-29T13:41:31;101235.88;;;9.85
67829;BMP280;54626;45.436;10.942;2022-12-29T13:44:01;101239.88;;;9.84
67829;BMP280;54626;45.436;10.942;2022-12-29T13:46:34;101237.38;;;9.86
67829;BMP280;54626;45.436;10.942;2022-12-29T13:49:17;101232.84;;;9.83
67829;BMP280;54626;45.436;10.942;2022-12-29T13:51:52;101222.34;;;9.82
67829;BMP280;54626;45.436;10.942;2022-12-29T13:57:03;101208.53;;;9.82
67829;BMP280;54626;45.436;10.942;2022-12-29T13:59:50;101206.50;;;9.82
67829;BMP280;54626;45.436;10.942;2022-12-29T14:02:21;101200.75;;;9.80
67829;BMP280;54626;45.436;10.942;2022-12-29T14:05:03;101217.09;;;9.78
67829;BMP280;54626;45.436;10.942;2022-12-29T14:07:36;101217.34;;;9.75
67829;BMP280;54626;45.436;10.942;2022-12-29T14:10:04;101221.16;;;9.72
67829;BMP280;54626;45.436;10.942;2022-12-29T14:12:32;101219.66;;;9.71
67829;BMP280;54626;45.436;10.942;2022-12-29T14:17:40;101214.13;;;9.71
67829;BMP280;54626;45.436;10.942;2022-12-29T14:20:18;101212.63;;;9.70
67829;BMP280;54626;45.436;10.942;2022-12-29T14:26:09;101214.63;;;9.69
67829;BMP280;54626;45.436;10.942;2022-12-29T14:28:47;101213.66;;;9.67
67829;BMP280;54626;45.436;10.942;2022-12-29T14:34:14;101212.13;;;9.66
67829;BMP280;54626;45.436;10.942;2022-12-29T14:36:42;101217.16;;;9.67
67829;BMP280;54626;45.436;10.942;2022-12-29T14:44:26;101215.44;;;9.64
67829;BMP280;54626;45.436;10.942;2022-12-29T14:49:21;101205.63;;;9.63
67829;BMP280;54626;45.436;10.942;2022-12-29T14:51:51;101217.69;;;9.60
67829;BMP280;54626;45.436;10.942;2022-12-29T14:57:03;101218.22;;;9.59
67829;BMP280;54626;45.436;10.942;2022-12-29T14:59:32;101227.00;;;9.57
67829;BMP280;54626;45.436;10.942;2022-12-29T15:02:01;101206.72;;;9.55
67829;BMP280;54626;45.436;10.942;2022-12-29T15:04:33;101205.22;;;9.54
67829;BMP280;54626;45.436;10.942;2022-12-29T15:07:02;101203.19;;;9.54
67829;BMP280;54626;45.436;10.942;2022-12-29T15:09:34;101198.91;;;9.53
67829;BMP280;54626;45.436;10.942;2022-12-29T15:12:20;101193.66;;;9.50
67829;BMP280;54626;45.436;10.942;2022-12-29T15:14:53;101191.41;;;9.48
67829;BMP280;54626;45.436;10.942;2022-12-29T15:17:34;101189.91;;;9.47
67829;BMP280;54626;45.436;10.942;2022-12-29T15:20:16;101200.94;;;9.47
67829;BMP280;54626;45.436;10.942;2022-12-29T15:22:44;101202.75;;;9.45
67829;BMP280;54626;45.436;10.942;2022-12-29T15:25:15;101195.72;;;9.44
67829;BMP280;54626;45.436;10.942;2022-12-29T15:27:51;101206.25;;;9.45
67829;BMP280;54626;45.436;10.942;2022-12-29T15:30:19;101216.31;;;9.43
67829;BMP280;54626;45.436;10.942;2022-12-29T15:32:47;101219.06;;;9.43
67829;BMP280;54626;45.436;10.942;2022-12-29T15:35:29;101221.56;;;9.41
67829;BMP280;54626;45.436;10.942;2022-12-29T15:37:57;101208.50;;;9.41
67829;BMP280;54626;45.436;10.942;2022-12-29T15:40:31;101195.97;;;9.40
67829;BMP280;54626;45.436;10.942;2022-12-29T15:43:16;101193.00;;;9.38
67829;BMP280;54626;45.436;10.942;2022-12-29T15:45:49;101189.25;;;9.36
67829;BMP280;54626;45.436;10.942;2022-12-29T15:48:18;101197.53;;;9.36
67829;BMP280;54626;45.436;10.942;2022-12-29T15:50:47;101184.22;;;9.34
67829;BMP280;54626;45.436;10.942;2022-12-29T15:53:21;101192.75;;;9.36
67829;BMP280;54626;45.436;10.942;2022-12-29T15:56:00;101184.47;;;9.36
67829;BMP280;54626;45.436;10.942;2022-12-29T15:58:30;101197.22;;;9.39
67829;BMP280;54626;45.436;10.942;2022-12-29T16:01:01;101189.97;;;9.36
67829;BMP280;54626;45.436;10.942;2022-12-29T16:03:31;101183.22;;;9.37
67829;BMP280;54626;45.436;10.942;2022-12-29T16:06:31;101179.94;;;9.39
67829;BMP280;54626;45.436;10.942;2022-12-29T16:09:15;101180.44;;;9.37
67829;BMP280;54626;45.436;10.942;2022-12-29T16:11:47;101182.47;;;9.37
67829;BMP280;54626;45.436;10.942;2022-12-29T16:14:17;101190.97;;;9.39